createdAt,value
2023-01-19T00:02:13.664Z,89.90
2023-01-19T00:05:04.199Z,92.38
2023-01-19T00:07:53.534Z,71.25
2023-01-19T00:10:46.647Z,78.40
2023-01-19T00:16:24.932Z,73.25
2023-01-19T00:19:20.579Z,81.10
2023-01-19T00:22:09.918Z,82.15
2023-01-19T00:24:59.090Z,123.82
2023-01-19T00:27:49.997Z,90.13
2023-01-19T00:30:39.666Z,91.07
2023-01-19T00:33:29.023Z,86.68
2023-01-19T00:36:18.336Z,93.35
2023-01-19T00:39:07.591Z,109.78
2023-01-19T00:42:14.485Z,67.75
2023-01-19T00:45:06.707Z,96.07
2023-01-19T00:47:57.396Z,70.93
2023-01-19T00:50:46.684Z,95.28
2023-01-19T00:53:35.921Z,95.43
2023-01-19T00:56:25.145Z,60.80
2023-01-19T00:59:14.686Z,60.92
2023-01-19T01:02:05.529Z,79.75
2023-01-19T01:04:56.852Z,54.42
2023-01-19T01:07:47.130Z,42.15
2023-01-19T01:10:36.317Z,42.33
2023-01-19T01:13:27.753Z,47.88
2023-01-19T01:16:18.059Z,45.65
2023-01-19T01:19:08.830Z,36.47
2023-01-19T01:21:58.156Z,37.42
2023-01-19T01:24:47.631Z,39.85
2023-01-19T01:27:36.912Z,31.77
2023-01-19T01:30:26.140Z,26.13
2023-01-19T01:33:15.348Z,26.17
2023-01-19T01:36:29.183Z,21.35
2023-01-19T01:39:18.381Z,20.05
2023-01-19T01:42:18.900Z,15.68
2023-01-19T01:45:31.895Z,25.55
2023-01-19T01:48:27.931Z,19.23
2023-01-19T01:51:27.370Z,16.95
2023-01-19T01:54:22.893Z,24.13
2023-01-19T01:57:13.365Z,16.95
2023-01-19T02:00:03.397Z,30.73
2023-01-19T02:02:55.282Z,26.65
2023-01-19T02:05:46.153Z,67.90
2023-01-19T02:08:58.166Z,39.45
2023-01-19T02:12:06.877Z,44.92
2023-01-19T02:14:56.114Z,52.05
2023-01-19T02:17:52.387Z,70.10
2023-01-19T02:20:46.564Z,72.97
2023-01-19T02:23:42.611Z,63.63
2023-01-19T02:26:36.544Z,79.68
2023-01-19T02:29:28.253Z,80.90
2023-01-19T02:32:17.563Z,84.85
2023-01-19T02:35:08.027Z,97.65
2023-01-19T02:37:58.735Z,104.75
2023-01-19T02:40:50.427Z,112.68
2023-01-19T02:43:40.650Z,128.65
2023-01-19T02:46:30.014Z,127.05
2023-01-19T02:49:19.563Z,145.20
2023-01-19T02:52:16.021Z,103.72
2023-01-19T02:55:16.587Z,74.85
2023-01-19T02:58:12.991Z,49.97
2023-01-19T03:01:13.762Z,37.97
2023-01-19T03:04:16.451Z,27.63
2023-01-19T03:07:13.084Z,20.70
2023-01-19T03:10:09.596Z,15.38
2023-01-19T03:13:08.062Z,19.38
2023-01-19T03:16:06.204Z,25.05
2023-01-19T03:19:02.910Z,22.27
2023-01-19T03:21:57.512Z,16.80
2023-01-19T03:24:48.809Z,14.30
2023-01-19T03:27:42.179Z,18.50
2023-01-19T03:30:36.474Z,18.05
2023-01-19T03:33:32.988Z,18.85
2023-01-19T03:36:28.440Z,22.33
2023-01-19T03:39:25.014Z,16.55
2023-01-19T03:42:17.603Z,21.20
2023-01-19T03:45:08.790Z,20.73
2023-01-19T03:47:59.970Z,23.70
2023-01-19T03:50:51.605Z,22.08
2023-01-19T03:53:40.979Z,20.65
2023-01-19T03:56:30.387Z,28.58
2023-01-19T03:59:20.095Z,31.38
2023-01-19T04:02:09.949Z,34.88
2023-01-19T04:04:59.579Z,31.52
2023-01-19T04:07:51.998Z,36.85
2023-01-19T04:10:41.636Z,33.42
2023-01-19T04:13:31.045Z,33.17
2023-01-19T04:16:21.437Z,35.15
2023-01-19T04:19:10.668Z,39.75
2023-01-19T04:21:59.912Z,37.47
2023-01-19T04:24:50.911Z,38.97
2023-01-19T04:27:40.240Z,36.20
2023-01-19T04:30:29.686Z,39.50
2023-01-19T04:33:19.063Z,38.90
2023-01-19T04:36:09.113Z,41.47
2023-01-19T04:38:58.341Z,45.63
2023-01-19T04:41:48.950Z,46.78
2023-01-19T04:44:38.208Z,45.63
2023-01-19T04:47:27.564Z,44.03
2023-01-19T04:50:17.731Z,47.22
2023-01-19T04:53:07.306Z,45.75
2023-01-19T04:55:57.100Z,44.42
2023-01-19T04:58:47.679Z,41.85
2023-01-19T05:01:37.123Z,45.10
2023-01-19T05:04:26.799Z,44.30
2023-01-19T05:07:16.016Z,48.10
2023-01-19T05:10:06.383Z,46.22
2023-01-19T05:12:55.849Z,48.67
2023-01-19T05:15:46.774Z,47.15
2023-01-19T05:18:37.241Z,42.75
2023-01-19T05:21:26.509Z,40.10
2023-01-19T05:24:15.794Z,39.15
2023-01-19T05:27:05.172Z,39.90
2023-01-19T05:29:54.621Z,39.30
2023-01-19T05:32:45.291Z,34.40
2023-01-19T05:35:36.425Z,35.50
2023-01-19T05:38:34.556Z,35.30
2023-01-19T05:41:24.353Z,33.92
2023-01-19T05:44:14.196Z,32.47
2023-01-19T05:47:03.485Z,39.70
2023-01-19T05:49:54.123Z,42.28
2023-01-19T05:52:43.510Z,45.25
2023-01-19T05:55:33.404Z,44.22
2023-01-19T05:58:22.659Z,48.17
2023-01-19T06:01:12.357Z,48.83
2023-01-19T06:04:01.659Z,40.92
2023-01-19T06:06:52.997Z,37.85
2023-01-19T06:09:42.291Z,30.50
2023-01-19T06:12:32.684Z,28.45
2023-01-19T06:15:22.908Z,28.80
2023-01-19T06:18:12.561Z,23.10
2023-01-19T06:21:06.165Z,21.42
2023-01-19T06:23:56.867Z,18.23
2023-01-19T06:26:46.165Z,18.77
2023-01-19T06:29:35.398Z,20.85
2023-01-19T06:32:25.118Z,20.80
2023-01-19T06:35:14.391Z,21.50
2023-01-19T06:38:03.645Z,20.95
2023-01-19T06:40:59.678Z,20.05
2023-01-19T06:43:48.887Z,19.75
2023-01-19T06:46:38.126Z,24.05
2023-01-19T06:49:27.440Z,25.60
2023-01-19T06:52:18.427Z,24.48
2023-01-19T06:55:10.825Z,20.85
2023-01-19T06:58:01.587Z,20.73
2023-01-19T07:00:52.008Z,19.50
2023-01-19T07:03:41.395Z,19.52
2023-01-19T07:06:30.642Z,18.67
2023-01-19T07:09:20.555Z,17.95
2023-01-19T07:12:09.782Z,20.13
2023-01-19T07:15:00.981Z,21.00
2023-01-19T07:17:50.582Z,20.85
2023-01-19T07:20:40.588Z,23.55
2023-01-19T07:23:30.880Z,20.98
2023-01-19T07:26:21.577Z,20.80
2023-01-19T07:29:11.316Z,19.02
2023-01-19T07:32:02.146Z,19.35
2023-01-19T07:34:51.595Z,23.02
2023-01-19T07:37:40.857Z,22.98
2023-01-19T07:40:30.160Z,30.38
2023-01-19T07:43:19.532Z,31.95
2023-01-19T07:46:09.299Z,42.45
2023-01-19T07:48:59.962Z,38.75
2023-01-19T07:51:49.287Z,34.08
2023-01-19T07:54:38.550Z,26.70
2023-01-19T07:57:27.771Z,22.10
2023-01-19T08:00:19.756Z,19.60
2023-01-19T08:03:09.310Z,16.30
2023-01-19T08:06:00.515Z,21.65
2023-01-19T08:08:50.454Z,15.20
2023-01-19T08:11:39.823Z,14.90
2023-01-19T08:14:29.091Z,14.48
2023-01-19T08:17:18.570Z,16.48
2023-01-19T08:20:09.880Z,18.15
2023-01-19T08:23:01.581Z,16.88
2023-01-19T08:25:51.140Z,16.70
2023-01-19T08:28:40.377Z,17.75
2023-01-19T08:31:30.335Z,17.80
2023-01-19T08:34:19.808Z,17.08
2023-01-19T08:37:09.214Z,15.77
2023-01-19T08:39:59.899Z,15.63
2023-01-19T08:42:49.120Z,14.48
2023-01-19T08:45:46.728Z,14.32
2023-01-19T08:48:35.943Z,18.25
2023-01-19T08:51:25.149Z,28.48
2023-01-19T08:54:16.677Z,30.92
2023-01-19T08:57:08.267Z,33.30
2023-01-19T08:59:57.587Z,42.58
2023-01-19T09:02:47.015Z,37.63
2023-01-19T09:05:39.048Z,37.03
2023-01-19T09:08:28.739Z,35.60
2023-01-19T09:11:18.837Z,36.60
2023-01-19T09:14:09.693Z,46.42
2023-01-19T09:16:59.311Z,33.25
2023-01-19T09:19:48.579Z,39.63
2023-01-19T09:22:39.707Z,38.38
2023-01-19T09:25:29.150Z,41.55
2023-01-19T09:28:19.247Z,32.95
2023-01-19T09:31:10.726Z,38.17
2023-01-19T09:34:00.109Z,36.47
2023-01-19T09:36:49.258Z,36.15
2023-01-19T09:39:39.121Z,36.55
2023-01-19T09:42:36.321Z,36.08
2023-01-19T09:45:36.197Z,32.15
2023-01-19T09:48:40.430Z,28.25
2023-01-19T09:51:34.426Z,31.10
2023-01-19T09:54:30.566Z,30.38
2023-01-19T09:57:19.852Z,39.00
2023-01-19T10:00:17.715Z,31.88
2023-01-19T10:03:16.825Z,34.10
2023-01-19T10:06:10.817Z,31.38
2023-01-19T10:09:08.446Z,56.05
2023-01-19T10:12:04.081Z,31.25
2023-01-19T10:15:01.857Z,34.50
2023-01-19T10:18:05.456Z,34.53
2023-01-19T10:21:01.187Z,35.80
2023-01-19T10:23:56.720Z,41.85
2023-01-19T10:26:49.216Z,35.28
2023-01-19T10:29:39.483Z,43.97
2023-01-19T10:32:32.830Z,41.40
2023-01-19T10:35:25.502Z,38.35
2023-01-19T10:38:22.223Z,35.85
2023-01-19T10:41:22.314Z,38.92
2023-01-19T10:44:12.974Z,37.72
2023-01-19T10:47:03.328Z,34.97
2023-01-19T10:49:52.634Z,35.28
2023-01-19T10:52:44.794Z,35.22
2023-01-19T10:55:38.161Z,36.80
2023-01-19T10:58:32.376Z,37.22
2023-01-19T11:01:24.541Z,37.33
2023-01-19T11:04:28.846Z,33.43
2023-01-19T11:07:22.789Z,31.73
2023-01-19T11:10:25.208Z,38.40
2023-01-19T11:13:16.012Z,34.80
2023-01-19T11:16:17.343Z,35.53
2023-01-19T11:19:07.711Z,31.67
2023-01-19T11:22:16.758Z,35.80
2023-01-19T11:25:08.030Z,32.22
2023-01-19T11:27:57.347Z,26.65
2023-01-19T11:30:58.071Z,32.03
2023-01-19T11:33:54.547Z,28.45
2023-01-19T11:36:56.032Z,34.97
2023-01-19T11:39:50.064Z,30.38
2023-01-19T11:42:40.360Z,27.67
2023-01-19T11:45:29.785Z,25.02
2023-01-19T11:48:28.713Z,22.80
2023-01-19T11:51:23.256Z,28.58
2023-01-19T11:54:24.922Z,30.80
2023-01-19T11:57:17.706Z,77.88
2023-01-19T12:00:31.271Z,88.25
2023-01-19T12:03:26.625Z,86.78
2023-01-19T12:06:22.744Z,77.03
2023-01-19T12:09:20.679Z,74.93
2023-01-19T12:12:18.601Z,51.67
2023-01-19T12:15:22.540Z,36.72
2023-01-19T12:18:19.562Z,37.80
2023-01-19T12:21:08.881Z,35.03
2023-01-19T12:24:16.130Z,40.88
2023-01-19T12:27:16.815Z,43.88
2023-01-19T12:30:17.406Z,36.42
2023-01-19T12:33:37.576Z,39.53
2023-01-19T12:36:40.281Z,35.65
2023-01-19T12:39:31.150Z,46.67
2023-01-19T12:42:21.406Z,33.90
2023-01-19T12:45:17.860Z,57.03
2023-01-19T12:48:24.467Z,28.52
2023-01-19T12:51:25.268Z,46.03
2023-01-19T12:54:33.170Z,41.08
2023-01-19T12:57:28.336Z,35.42
2023-01-19T13:00:33.185Z,40.08
2023-01-19T13:03:58.755Z,37.45
2023-01-19T13:07:13.923Z,44.83
2023-01-19T13:11:02.146Z,32.45
2023-01-19T13:14:37.239Z,37.42
2023-01-19T13:17:34.659Z,35.90
2023-01-19T13:20:31.451Z,40.78
2023-01-19T13:23:26.854Z,39.35
2023-01-19T13:26:20.178Z,39.60
2023-01-19T13:29:17.074Z,40.47
2023-01-19T13:32:15.976Z,32.38
2023-01-19T13:35:08.205Z,34.15
2023-01-19T13:38:00.180Z,35.45
2023-01-19T13:40:50.014Z,37.88
2023-01-19T13:43:41.170Z,37.95
2023-01-19T13:46:33.381Z,39.05
2023-01-19T13:49:29.812Z,38.63
2023-01-19T13:52:23.661Z,25.83
2023-01-19T13:55:17.284Z,28.25
2023-01-19T13:58:20.807Z,38.30
2023-01-19T14:01:23.847Z,39.33
2023-01-19T14:07:26.492Z,25.48
2023-01-19T14:10:17.834Z,34.58
2023-01-19T14:13:15.371Z,38.70
2023-01-19T14:16:09.261Z,33.92
2023-01-19T14:19:05.035Z,31.70
2023-01-19T14:22:02.953Z,34.58
2023-01-19T14:24:52.277Z,23.23
2023-01-19T14:27:41.587Z,26.02
2023-01-19T14:30:32.700Z,24.98
2023-01-19T14:33:41.993Z,22.60
2023-01-19T14:36:39.295Z,19.73
2023-01-19T14:39:34.010Z,67.63
2023-01-19T14:42:28.331Z,19.23
2023-01-19T14:45:20.503Z,17.30
2023-01-19T14:48:19.422Z,14.30
2023-01-19T14:51:08.955Z,14.02
2023-01-19T14:54:02.115Z,16.30
2023-01-19T14:59:48.465Z,18.60
2023-01-19T15:02:37.831Z,20.92
2023-01-19T15:05:27.208Z,18.85
2023-01-19T15:08:20.485Z,21.55
2023-01-19T15:11:23.240Z,21.42
2023-01-19T15:14:15.489Z,18.95
2023-01-19T15:17:05.192Z,13.55
2023-01-19T15:19:55.300Z,15.52
2023-01-19T15:22:44.991Z,18.10
2023-01-19T15:25:34.394Z,16.92
2023-01-19T15:28:25.021Z,12.18
2023-01-19T15:31:19.156Z,12.95
2023-01-19T15:34:13.548Z,17.45
2023-01-19T15:37:02.835Z,18.35
2023-01-19T15:39:52.118Z,21.00
2023-01-19T15:42:41.522Z,17.23
2023-01-19T15:45:37.306Z,20.38
2023-01-19T15:48:26.685Z,22.92
2023-01-19T15:51:18.006Z,14.88
2023-01-19T15:54:07.413Z,18.50
2023-01-19T15:56:56.745Z,14.68
2023-01-19T15:59:46.003Z,15.75
2023-01-19T16:02:37.947Z,31.42
2023-01-19T16:05:41.370Z,23.02
2023-01-19T16:08:31.451Z,18.60
2023-01-19T16:11:20.654Z,19.48
2023-01-19T16:14:09.955Z,18.73
2023-01-19T16:17:00.061Z,21.75
2023-01-19T16:19:50.848Z,21.85
2023-01-19T16:22:40.499Z,24.65
2023-01-19T16:25:31.123Z,28.27
2023-01-19T16:28:20.395Z,30.30
2023-01-19T16:31:09.655Z,28.30
2023-01-19T16:33:58.808Z,33.38
2023-01-19T16:36:50.069Z,38.60
2023-01-19T16:39:39.698Z,44.28
2023-01-19T16:42:28.967Z,42.17
2023-01-19T16:45:18.314Z,38.80
2023-01-19T16:48:08.022Z,36.83
2023-01-19T16:51:04.703Z,46.45
2023-01-19T16:53:55.647Z,36.25
2023-01-19T16:56:44.993Z,37.80
2023-01-19T16:59:34.251Z,41.72
2023-01-19T17:02:23.549Z,39.50
2023-01-19T17:05:13.132Z,43.13
2023-01-19T17:08:02.516Z,33.80
2023-01-19T17:10:53.180Z,34.53
2023-01-19T17:13:42.463Z,46.88
2023-01-19T17:16:33.962Z,52.63
2023-01-19T17:19:23.346Z,46.22
2023-01-19T17:22:13.738Z,47.65
2023-01-19T17:25:02.969Z,47.92
2023-01-19T17:27:53.655Z,54.92
2023-01-19T17:30:43.242Z,55.10
2023-01-19T17:33:32.579Z,61.83
2023-01-19T17:36:25.378Z,66.53
2023-01-19T17:39:18.628Z,74.10
2023-01-19T17:42:08.022Z,73.00
2023-01-19T17:44:58.604Z,69.80
2023-01-19T17:47:50.599Z,68.65
2023-01-19T17:50:40.168Z,65.40
2023-01-19T17:53:29.845Z,76.35
2023-01-19T17:56:22.033Z,76.47
2023-01-19T17:59:11.311Z,93.13
2023-01-19T18:02:01.912Z,86.72
2023-01-19T18:04:53.009Z,79.57
2023-01-19T18:07:42.310Z,97.57
2023-01-19T18:10:31.487Z,80.20
2023-01-19T18:13:20.781Z,86.13
2023-01-19T18:16:13.875Z,73.70
2023-01-19T18:21:53.647Z,90.05
2023-01-19T18:24:44.399Z,78.55
2023-01-19T18:27:33.689Z,67.40
2023-01-19T18:30:24.015Z,71.03
2023-01-19T18:33:13.269Z,97.75
2023-01-19T18:36:04.541Z,70.72
2023-01-19T18:38:53.769Z,63.75
2023-01-19T18:41:43.010Z,65.07
2023-01-19T18:44:32.279Z,68.03
2023-01-19T18:47:21.590Z,79.13
2023-01-19T18:50:14.232Z,66.95
2023-01-19T18:53:05.081Z,75.88
2023-01-19T18:55:57.977Z,63.20
2023-01-19T18:58:47.570Z,58.13
2023-01-19T19:01:37.097Z,53.47
2023-01-19T19:04:26.410Z,63.17
2023-01-19T19:07:15.734Z,61.15
2023-01-19T19:10:07.699Z,52.20
2023-01-19T19:12:56.952Z,50.15
2023-01-19T19:15:46.247Z,59.85
2023-01-19T19:18:36.453Z,48.08
2023-01-19T19:21:26.477Z,54.42
2023-01-19T19:24:15.720Z,52.88
2023-01-19T19:27:06.464Z,53.42
2023-01-19T19:29:55.726Z,44.45
2023-01-19T19:32:44.937Z,53.22
2023-01-19T19:35:34.259Z,52.17
2023-01-19T19:38:23.556Z,59.17
2023-01-19T19:41:15.915Z,51.03
2023-01-19T19:44:06.905Z,51.20
2023-01-19T19:46:56.175Z,44.83
2023-01-19T19:49:45.451Z,48.72
2023-01-19T19:52:40.482Z,52.40
2023-01-19T19:55:29.829Z,59.35
2023-01-19T19:58:19.180Z,55.95
2023-01-19T20:01:15.076Z,58.30
2023-01-19T20:04:10.812Z,63.58
2023-01-19T20:07:00.320Z,53.58
2023-01-19T20:09:51.186Z,51.72
2023-01-19T20:12:40.416Z,51.80
2023-01-19T20:15:29.705Z,56.88
2023-01-19T20:18:20.325Z,48.50
2023-01-19T20:21:14.709Z,89.45
2023-01-19T20:24:06.412Z,85.40
2023-01-19T20:26:56.803Z,81.63
2023-01-19T20:29:51.471Z,75.38
2023-01-19T20:32:41.270Z,56.05
2023-01-19T20:35:32.096Z,61.80
2023-01-19T20:38:21.317Z,60.58
2023-01-19T20:41:13.044Z,61.45
2023-01-19T20:44:02.304Z,66.90
2023-01-19T20:46:52.205Z,53.08
2023-01-19T20:49:42.110Z,56.70
2023-01-19T20:52:32.822Z,63.63
2023-01-19T20:55:22.005Z,95.22
2023-01-19T20:58:11.239Z,108.60
2023-01-19T21:01:00.733Z,104.00
2023-01-19T21:03:50.853Z,106.22
2023-01-19T21:06:40.399Z,96.60
2023-01-19T21:09:31.119Z,103.13
2023-01-19T21:12:21.536Z,117.28
2023-01-19T21:15:12.256Z,132.82
2023-01-19T21:18:02.003Z,134.65
2023-01-19T21:20:51.283Z,140.43
2023-01-19T21:23:40.575Z,125.43
2023-01-19T21:26:33.596Z,120.15
2023-01-19T21:32:12.007Z,111.47
2023-01-19T21:35:01.205Z,89.18
2023-01-19T21:37:50.461Z,101.32
2023-01-19T21:40:39.721Z,130.05
2023-01-19T21:43:30.476Z,71.07
2023-01-19T21:46:22.158Z,65.72
2023-01-19T21:49:21.360Z,39.13
2023-01-19T21:52:10.562Z,42.42
2023-01-19T21:54:59.818Z,37.10
2023-01-19T21:57:49.119Z,43.80
2023-01-19T22:00:39.770Z,44.33
2023-01-19T22:03:29.823Z,47.95
2023-01-19T22:06:19.146Z,51.83
2023-01-19T22:09:23.449Z,62.05
2023-01-19T22:12:12.722Z,57.75
2023-01-19T22:15:01.993Z,59.20
2023-01-19T22:17:53.544Z,62.45
2023-01-19T22:20:42.761Z,70.90
2023-01-19T22:23:31.975Z,62.05
2023-01-19T22:26:21.834Z,83.85
2023-01-19T22:29:11.971Z,70.32
2023-01-19T22:32:01.219Z,71.68
2023-01-19T22:34:51.883Z,62.40
2023-01-19T22:37:41.327Z,70.43
2023-01-19T22:40:30.597Z,71.82
2023-01-19T22:43:19.861Z,76.15
2023-01-19T22:46:09.210Z,66.45
2023-01-19T22:48:58.889Z,72.28
2023-01-19T22:51:49.772Z,64.65
2023-01-19T22:54:39.037Z,70.68
2023-01-19T22:57:28.365Z,70.80
2023-01-19T23:00:19.114Z,70.07
2023-01-19T23:03:08.360Z,59.17
2023-01-19T23:05:57.977Z,50.85
2023-01-19T23:08:48.932Z,45.55
2023-01-19T23:11:41.383Z,48.50
2023-01-19T23:14:30.626Z,82.20
2023-01-19T23:17:19.838Z,46.95
2023-01-19T23:20:11.344Z,50.10
2023-01-19T23:23:00.570Z,50.17
2023-01-19T23:25:51.294Z,58.22
2023-01-19T23:28:40.929Z,69.75
2023-01-19T23:31:32.880Z,50.45
2023-01-19T23:34:22.204Z,57.17
2023-01-19T23:37:11.466Z,60.28
2023-01-19T23:40:00.751Z,57.20
2023-01-19T23:42:51.463Z,59.22
2023-01-19T23:45:40.811Z,65.78
2023-01-19T23:48:30.072Z,63.08
2023-01-19T23:51:23.001Z,58.63
2023-01-19T23:54:13.034Z,61.53
2023-01-19T23:57:02.675Z,55.15
2023-01-19T23:59:53.371Z,62.13
